createdAt,value
2019-01-22T00:00:34.797Z,20.60
2019-01-22T00:01:42.545Z,24.97
2019-01-22T00:02:50.537Z,29.73
2019-01-22T00:03:58.492Z,21.87
2019-01-22T00:05:09.201Z,17.33
2019-01-22T00:06:20.407Z,20.63
2019-01-22T00:07:28.964Z,24.40
2019-01-22T00:08:37.198Z,20.87
2019-01-22T00:09:48.244Z,19.20
2019-01-22T00:10:56.842Z,24.17
2019-01-22T00:12:04.760Z,24.60
2019-01-22T00:13:13.572Z,20.47
2019-01-22T00:14:21.439Z,25.43
2019-01-22T00:15:32.174Z,26.20
2019-01-22T00:16:40.571Z,28.90
2019-01-22T00:17:48.411Z,22.73
2019-01-22T00:18:57.066Z,24.20
2019-01-22T00:20:08.391Z,23.17
2019-01-22T00:21:16.270Z,26.80
2019-01-22T00:22:24.061Z,23.03
2019-01-22T00:23:32.309Z,21.57
2019-01-22T00:24:39.968Z,25.53
2019-01-22T00:25:47.944Z,17.43
2019-01-22T00:26:55.939Z,16.17
2019-01-22T00:28:04.398Z,22.87
2019-01-22T00:29:44.797Z,23.90
2019-01-22T00:30:52.774Z,24.43
2019-01-22T00:32:00.466Z,29.60
2019-01-22T00:33:08.560Z,25.93
2019-01-22T00:34:16.464Z,32.80
2019-01-22T00:35:27.541Z,21.60
2019-01-22T00:36:39.820Z,24.27
2019-01-22T00:37:48.553Z,20.60
2019-01-22T00:38:57.558Z,24.13
2019-01-22T00:40:07.875Z,23.83
2019-01-22T00:41:15.565Z,31.03
2019-01-22T00:42:23.428Z,25.50
2019-01-22T00:43:32.348Z,24.90
2019-01-22T00:44:40.192Z,21.83
2019-01-22T00:45:48.198Z,23.47
2019-01-22T00:46:57.877Z,21.53
2019-01-22T00:48:06.948Z,19.17
2019-01-22T00:49:15.081Z,18.90
2019-01-22T00:50:23.888Z,21.87
2019-01-22T00:51:31.789Z,26.93
2019-01-22T00:52:39.943Z,32.30
2019-01-22T00:53:47.629Z,26.40
2019-01-22T00:54:55.665Z,31.50
2019-01-22T00:56:06.373Z,19.43
2019-01-22T00:57:14.568Z,22.77
2019-01-22T00:58:24.014Z,16.33
2019-01-22T00:59:32.374Z,17.43
2019-01-22T01:00:41.124Z,17.87
2019-01-22T01:01:49.566Z,19.83
2019-01-22T01:02:58.198Z,25.27
2019-01-22T01:04:06.471Z,24.90
2019-01-22T01:05:14.837Z,19.67
2019-01-22T01:06:23.434Z,34.83
2019-01-22T01:07:31.377Z,26.03
2019-01-22T01:08:39.651Z,29.87
2019-01-22T01:09:47.582Z,25.43
2019-01-22T01:10:56.191Z,23.60
2019-01-22T01:12:03.959Z,28.20
2019-01-22T01:13:12.023Z,22.97
2019-01-22T01:14:20.134Z,25.03
2019-01-22T01:15:28.015Z,25.87
2019-01-22T01:16:35.706Z,27.63
2019-01-22T01:17:43.588Z,32.10
2019-01-22T01:18:51.914Z,27.57
2019-01-22T01:20:00.706Z,26.07
2019-01-22T01:21:08.494Z,18.30
2019-01-22T01:22:16.076Z,26.07
2019-01-22T01:23:23.970Z,23.07
2019-01-22T01:24:31.763Z,23.60
2019-01-22T01:25:41.001Z,15.73
2019-01-22T01:26:49.329Z,19.77
2019-01-22T01:27:57.219Z,21.30
2019-01-22T01:29:04.901Z,24.00
2019-01-22T01:30:16.487Z,28.50
2019-01-22T01:31:24.187Z,26.10
2019-01-22T01:32:31.821Z,19.67
2019-01-22T01:33:39.520Z,16.30
2019-01-22T01:34:47.518Z,22.90
2019-01-22T01:35:56.308Z,20.67
2019-01-22T01:37:04.310Z,19.53
2019-01-22T01:38:12.088Z,22.20
2019-01-22T01:39:20.202Z,25.60
2019-01-22T01:40:28.106Z,20.13
2019-01-22T01:41:36.387Z,18.57
2019-01-22T01:42:44.643Z,22.63
2019-01-22T01:43:52.719Z,19.70
2019-01-22T01:45:00.493Z,22.30
2019-01-22T01:46:08.031Z,22.60
2019-01-22T01:47:15.942Z,28.60
2019-01-22T01:48:23.544Z,27.33
2019-01-22T01:49:31.163Z,24.43
2019-01-22T01:50:38.906Z,22.53
2019-01-22T01:51:46.507Z,31.83
2019-01-22T01:52:54.496Z,27.37
2019-01-22T01:54:02.113Z,29.77
2019-01-22T01:55:12.106Z,29.33
2019-01-22T01:56:19.666Z,34.93
2019-01-22T01:57:27.130Z,33.70
2019-01-22T01:58:34.789Z,26.93
2019-01-22T01:59:42.778Z,25.97
2019-01-22T02:00:50.595Z,24.27
2019-01-22T02:01:58.276Z,25.57
2019-01-22T02:03:06.247Z,27.20
2019-01-22T02:04:14.137Z,26.10
2019-01-22T02:05:22.133Z,29.20
2019-01-22T02:06:29.850Z,28.57
2019-01-22T02:07:37.699Z,25.80
2019-01-22T02:08:45.318Z,37.90
2019-01-22T02:09:53.129Z,31.20
2019-01-22T02:11:00.769Z,30.10
2019-01-22T02:12:08.411Z,27.30
2019-01-22T02:13:17.067Z,19.50
2019-01-22T02:14:28.956Z,28.73
2019-01-22T02:15:56.818Z,21.03
2019-01-22T02:17:16.168Z,27.00
2019-01-22T02:18:46.701Z,31.93
2019-01-22T02:20:05.131Z,31.80
2019-01-22T02:21:50.026Z,27.90
2019-01-22T02:23:20.032Z,21.30
2019-01-22T02:24:35.639Z,26.93
2019-01-22T02:25:53.592Z,24.07
2019-01-22T02:27:33.038Z,21.53
2019-01-22T02:29:03.457Z,22.30
2019-01-22T02:30:38.422Z,23.03
2019-01-22T02:32:19.330Z,22.43
2019-01-22T02:33:55.707Z,22.90
2019-01-22T02:35:14.701Z,23.13
2019-01-22T02:36:35.946Z,25.03
2019-01-22T02:38:12.563Z,24.90
2019-01-22T02:39:43.051Z,24.73
2019-01-22T02:41:10.315Z,28.87
2019-01-22T02:42:28.419Z,29.77
2019-01-22T02:44:14.399Z,23.63
2019-01-22T02:45:55.666Z,24.60
2019-01-22T02:47:25.986Z,24.20
2019-01-22T02:48:49.994Z,22.47
2019-01-22T02:50:30.083Z,21.43
2019-01-22T02:52:03.759Z,20.93
2019-01-22T02:53:24.548Z,19.83
2019-01-22T02:54:37.176Z,25.17
2019-01-22T02:56:07.107Z,22.93
2019-01-22T02:57:53.962Z,33.87
2019-01-22T02:59:41.424Z,24.93
2019-01-22T03:01:19.286Z,23.73
2019-01-22T03:03:06.895Z,25.67
2019-01-22T03:04:25.341Z,19.97
2019-01-22T03:05:50.485Z,27.27
2019-01-22T03:07:21.636Z,26.63
2019-01-22T03:08:47.905Z,21.43
2019-01-22T03:10:12.641Z,27.33
2019-01-22T03:11:43.585Z,24.83
2019-01-22T03:13:02.547Z,21.77
2019-01-22T03:14:27.675Z,34.90
2019-01-22T03:16:05.769Z,29.60
2019-01-22T03:17:42.410Z,26.17
2019-01-22T03:19:06.484Z,22.90
2019-01-22T03:20:30.871Z,21.53
2019-01-22T03:21:52.234Z,26.60
2019-01-22T03:23:16.922Z,27.53
2019-01-22T03:24:55.128Z,27.43
2019-01-22T03:26:13.424Z,26.00
2019-01-22T03:27:28.634Z,18.10
2019-01-22T03:28:53.339Z,23.23
2019-01-22T03:30:23.466Z,26.10
2019-01-22T03:31:50.741Z,30.13
2019-01-22T03:33:19.791Z,25.13
2019-01-22T03:34:50.551Z,26.90
2019-01-22T03:36:11.903Z,26.33
2019-01-22T03:37:53.246Z,30.77
2019-01-22T03:39:17.890Z,31.20
2019-01-22T03:40:33.415Z,33.37
2019-01-22T03:42:23.971Z,30.93
2019-01-22T03:43:56.999Z,19.43
2019-01-22T03:45:31.295Z,25.73
2019-01-22T03:47:01.869Z,27.97
2019-01-22T03:48:23.337Z,26.57
2019-01-22T03:49:35.944Z,32.90
2019-01-22T03:51:07.901Z,24.77
2019-01-22T03:52:20.345Z,30.23
2019-01-22T03:53:38.173Z,28.37
2019-01-22T03:54:56.250Z,29.50
2019-01-22T03:56:20.332Z,22.33
2019-01-22T03:57:35.810Z,33.80
2019-01-22T03:58:43.959Z,29.67
2019-01-22T03:59:52.387Z,29.83
2019-01-22T04:01:04.528Z,23.27
2019-01-22T04:02:12.339Z,19.13
2019-01-22T04:03:20.265Z,19.73
2019-01-22T04:04:28.289Z,31.10
2019-01-22T04:05:36.007Z,30.50
2019-01-22T04:06:44.003Z,41.87
2019-01-22T04:07:51.953Z,27.03
2019-01-22T04:09:02.592Z,27.13
2019-01-22T04:10:18.380Z,29.27
2019-01-22T04:11:28.853Z,29.70
2019-01-22T04:12:37.177Z,34.90
2019-01-22T04:13:44.981Z,29.17
2019-01-22T04:14:52.969Z,33.33
2019-01-22T04:16:00.921Z,25.67
2019-01-22T04:17:08.844Z,21.50
2019-01-22T04:18:17.095Z,25.97
2019-01-22T04:19:24.994Z,31.27
2019-01-22T04:20:33.067Z,28.30
2019-01-22T04:21:40.925Z,32.23
2019-01-22T04:22:50.354Z,28.57
2019-01-22T04:24:36.427Z,30.03
2019-01-22T04:26:05.448Z,24.90
2019-01-22T04:27:40.458Z,19.20
2019-01-22T04:28:58.548Z,20.63
2019-01-22T04:30:23.400Z,25.33
2019-01-22T04:31:39.050Z,27.17
2019-01-22T04:32:56.721Z,38.80
2019-01-22T04:34:11.965Z,33.77
2019-01-22T04:35:33.525Z,33.90
2019-01-22T04:37:04.296Z,30.60
2019-01-22T04:38:31.912Z,35.43
2019-01-22T04:40:00.383Z,24.67
2019-01-22T04:41:34.645Z,26.63
2019-01-22T04:43:15.838Z,21.07
2019-01-22T04:44:47.949Z,25.03
2019-01-22T04:46:27.680Z,22.83
2019-01-22T04:47:43.312Z,23.63
2019-01-22T04:49:10.718Z,26.63
2019-01-22T04:50:47.090Z,29.77
2019-01-22T04:52:15.030Z,31.37
2019-01-22T04:53:51.380Z,27.73
2019-01-22T04:55:23.777Z,33.50
2019-01-22T04:57:03.481Z,24.33
2019-01-22T04:58:16.359Z,28.23
2019-01-22T04:59:55.851Z,25.47
2019-01-22T05:01:35.891Z,25.57
2019-01-22T05:03:00.851Z,35.10
2019-01-22T05:04:28.548Z,26.53
2019-01-22T05:05:53.185Z,24.13
2019-01-22T05:07:11.674Z,18.50
2019-01-22T05:08:39.302Z,25.33
2019-01-22T05:10:30.669Z,21.30
2019-01-22T05:13:16.907Z,27.97
2019-01-22T05:14:41.802Z,32.13
2019-01-22T05:16:09.936Z,26.47
2019-01-22T05:17:48.035Z,21.97
2019-01-22T05:19:06.630Z,26.57
2019-01-22T05:20:22.078Z,28.77
2019-01-22T05:22:14.476Z,30.07
2019-01-22T05:23:32.153Z,28.47
2019-01-22T05:24:57.018Z,28.80
2019-01-22T05:26:15.705Z,25.33
2019-01-22T05:27:53.343Z,20.33
2019-01-22T05:29:29.602Z,34.80
2019-01-22T05:30:51.026Z,27.20
2019-01-22T05:32:03.448Z,25.20
2019-01-22T05:33:46.287Z,28.60
2019-01-22T05:35:34.708Z,22.97
2019-01-22T05:37:05.766Z,20.97
2019-01-22T05:38:18.389Z,27.90
2019-01-22T05:39:36.355Z,25.17
2019-01-22T05:41:20.307Z,26.77
2019-01-22T05:42:47.438Z,30.33
2019-01-22T05:44:33.327Z,26.00
2019-01-22T05:45:54.531Z,31.13
2019-01-22T05:47:24.071Z,27.63
2019-01-22T05:48:39.591Z,36.50
2019-01-22T05:49:54.864Z,28.83
2019-01-22T05:51:17.809Z,28.57
2019-01-22T05:52:42.377Z,22.97
2019-01-22T05:54:24.988Z,21.30
2019-01-22T05:55:45.078Z,24.00
2019-01-22T05:56:57.582Z,25.13
2019-01-22T05:58:12.886Z,29.23
2019-01-22T05:59:39.966Z,23.70
2019-01-22T06:00:56.015Z,29.30
2019-01-22T06:02:14.079Z,25.53
2019-01-22T06:03:35.633Z,27.07
2019-01-22T06:04:57.235Z,34.50
2019-01-22T06:06:39.619Z,30.23
2019-01-22T06:08:10.090Z,28.87
2019-01-22T06:09:28.524Z,20.73
2019-01-22T06:11:09.587Z,25.50
2019-01-22T06:12:36.165Z,23.73
2019-01-22T06:13:55.064Z,25.50
2019-01-22T06:15:25.851Z,24.27
2019-01-22T06:16:59.287Z,30.30
2019-01-22T06:18:39.404Z,22.53
2019-01-22T06:20:09.343Z,25.87
2019-01-22T06:21:41.994Z,32.50
2019-01-22T06:22:58.051Z,30.07
2019-01-22T06:24:33.312Z,29.70
2019-01-22T06:25:52.868Z,27.03
2019-01-22T06:27:14.244Z,24.23
2019-01-22T06:28:32.744Z,31.33
2019-01-22T06:30:31.354Z,34.37
2019-01-22T06:31:55.901Z,27.67
2019-01-22T06:33:17.319Z,33.93
2019-01-22T06:34:53.988Z,29.07
2019-01-22T06:36:09.763Z,28.47
2019-01-22T06:37:34.578Z,24.67
2019-01-22T06:38:52.997Z,26.67
2019-01-22T06:40:14.753Z,32.23
2019-01-22T06:41:36.628Z,23.17
2019-01-22T06:43:06.057Z,31.63
2019-01-22T06:44:29.892Z,29.43
2019-01-22T06:46:01.340Z,29.23
2019-01-22T06:47:20.079Z,28.50
2019-01-22T06:48:59.793Z,29.00
2019-01-22T06:50:36.739Z,22.20
2019-01-22T06:52:17.036Z,25.07
2019-01-22T06:53:36.147Z,30.27
2019-01-22T06:55:00.934Z,26.70
2019-01-22T06:56:25.519Z,24.87
2019-01-22T06:57:49.900Z,38.37
2019-01-22T06:59:36.880Z,32.53
2019-01-22T07:01:02.109Z,32.67
2019-01-22T07:02:20.718Z,26.50
2019-01-22T07:04:10.603Z,23.87
2019-01-22T07:05:38.122Z,21.70
2019-01-22T07:07:12.080Z,22.73
2019-01-22T07:08:43.492Z,27.37
2019-01-22T07:10:27.034Z,28.43
2019-01-22T07:11:40.053Z,21.03
2019-01-22T07:13:01.750Z,38.87
2019-01-22T07:14:29.251Z,24.40
2019-01-22T07:15:47.850Z,22.97
2019-01-22T07:17:14.253Z,25.67
2019-01-22T07:18:42.103Z,28.07
2019-01-22T07:20:09.822Z,28.17
2019-01-22T07:21:48.445Z,25.27
2019-01-22T07:23:09.823Z,19.33
2019-01-22T07:24:46.863Z,18.97
2019-01-22T07:26:07.182Z,21.83
2019-01-22T07:27:38.029Z,26.70
2019-01-22T07:29:06.759Z,19.67
2019-01-22T07:30:31.454Z,28.80
2019-01-22T07:31:44.354Z,32.07
2019-01-22T07:33:22.833Z,27.07
2019-01-22T07:34:50.288Z,32.60
2019-01-22T07:36:24.030Z,29.30
2019-01-22T07:37:39.392Z,19.73
2019-01-22T07:39:26.937Z,24.67
2019-01-22T07:40:42.275Z,22.13
2019-01-22T07:42:12.902Z,35.17
2019-01-22T07:43:54.681Z,25.10
2019-01-22T07:45:28.080Z,22.37
2019-01-22T07:47:13.621Z,26.10
2019-01-22T07:48:26.512Z,22.60
2019-01-22T07:49:54.555Z,22.07
2019-01-22T07:51:10.717Z,24.20
2019-01-22T07:52:44.707Z,21.90
2019-01-22T07:54:08.586Z,20.13
2019-01-22T07:55:33.259Z,25.50
2019-01-22T07:57:10.581Z,21.57
2019-01-22T07:58:41.385Z,18.87
2019-01-22T07:59:57.154Z,21.00
2019-01-22T08:01:35.269Z,21.00
2019-01-22T08:02:53.492Z,23.33
2019-01-22T08:04:13.264Z,21.50
2019-01-22T08:05:36.156Z,24.43
2019-01-22T08:06:56.725Z,16.17
2019-01-22T08:08:24.146Z,18.67
2019-01-22T08:10:17.990Z,19.30
2019-01-22T08:11:48.435Z,20.67
2019-01-22T08:13:26.802Z,18.50
2019-01-22T08:14:48.762Z,15.33
2019-01-22T08:16:26.632Z,22.27
2019-01-22T08:17:42.401Z,20.90
2019-01-22T08:19:25.149Z,28.47
2019-01-22T08:21:02.532Z,19.27
2019-01-22T08:22:27.335Z,22.13
2019-01-22T08:24:13.548Z,20.03
2019-01-22T08:25:46.734Z,21.90
2019-01-22T08:27:12.090Z,18.97
2019-01-22T08:28:36.589Z,19.63
2019-01-22T08:29:50.971Z,18.77
2019-01-22T08:31:23.220Z,18.17
2019-01-22T08:33:00.449Z,16.07
2019-01-22T08:34:38.251Z,15.03
2019-01-22T08:36:03.406Z,21.27
2019-01-22T08:37:30.805Z,12.73
2019-01-22T08:38:49.336Z,15.27
2019-01-22T08:40:32.909Z,25.53
2019-01-22T08:41:51.486Z,21.53
2019-01-22T08:43:19.412Z,22.97
2019-01-22T08:44:53.274Z,22.30
2019-01-22T08:46:40.771Z,27.13
2019-01-22T08:48:08.494Z,16.03
2019-01-22T08:49:39.179Z,13.47
2019-01-22T08:51:09.805Z,17.37
2019-01-22T08:52:31.386Z,17.80
2019-01-22T08:54:04.805Z,21.97
2019-01-22T08:55:55.112Z,16.97
2019-01-22T08:57:28.962Z,19.20
2019-01-22T08:58:44.054Z,18.77
2019-01-22T09:00:05.772Z,17.17
2019-01-22T09:01:39.056Z,20.23
2019-01-22T09:03:13.262Z,21.57
2019-01-22T09:04:51.268Z,18.03
2019-01-22T09:06:15.439Z,25.07
2019-01-22T09:08:10.016Z,21.73
2019-01-22T09:09:37.533Z,14.77
2019-01-22T09:11:19.095Z,24.63
2019-01-22T09:12:46.371Z,15.70
2019-01-22T09:14:13.126Z,23.00
2019-01-22T09:15:49.889Z,26.60
2019-01-22T09:17:43.217Z,19.43
2019-01-22T09:19:12.332Z,23.47
2019-01-22T09:20:44.522Z,19.73
2019-01-22T09:22:38.056Z,24.13
2019-01-22T09:23:56.271Z,17.73
2019-01-22T09:25:14.857Z,27.97
2019-01-22T09:26:30.570Z,20.97
2019-01-22T09:28:28.914Z,25.57
2019-01-22T09:29:44.380Z,22.10
2019-01-22T09:30:59.508Z,21.43
2019-01-22T09:32:26.420Z,15.00
2019-01-22T09:33:57.298Z,23.73
2019-01-22T09:35:34.256Z,21.07
2019-01-22T09:36:49.544Z,19.47
2019-01-22T09:37:58.069Z,23.20
2019-01-22T09:39:10.299Z,20.57
2019-01-22T09:40:18.143Z,22.40
2019-01-22T09:41:26.645Z,19.90
2019-01-22T09:42:34.709Z,13.77
2019-01-22T09:43:46.581Z,19.20
2019-01-22T09:44:54.547Z,15.13
2019-01-22T09:46:02.002Z,18.50
2019-01-22T09:47:10.096Z,21.83
2019-01-22T09:48:17.807Z,21.33
2019-01-22T09:49:25.724Z,21.17
2019-01-22T09:50:34.288Z,13.13
2019-01-22T09:51:42.372Z,19.83
2019-01-22T09:52:50.479Z,19.83
2019-01-22T09:53:58.956Z,17.63
2019-01-22T09:55:11.530Z,12.03
2019-01-22T09:56:19.489Z,11.27
2019-01-22T09:57:27.176Z,20.77
2019-01-22T09:58:34.983Z,17.47
2019-01-22T09:59:42.957Z,14.80
2019-01-22T10:00:50.962Z,19.23
2019-01-22T10:01:58.593Z,15.67
2019-01-22T10:03:06.955Z,14.43
2019-01-22T10:04:14.669Z,15.07
2019-01-22T10:05:22.432Z,19.17
2019-01-22T10:06:30.696Z,14.50
2019-01-22T10:07:38.678Z,19.00
2019-01-22T10:08:46.506Z,20.73
2019-01-22T10:09:54.744Z,23.47
2019-01-22T10:11:02.672Z,18.47
2019-01-22T10:12:10.817Z,25.83
2019-01-22T10:13:18.688Z,17.10
2019-01-22T10:14:26.512Z,17.40
2019-01-22T10:15:34.261Z,17.37
2019-01-22T10:16:41.970Z,26.17
2019-01-22T10:17:50.331Z,20.07
2019-01-22T10:18:58.587Z,19.17
2019-01-22T10:20:11.149Z,22.13
2019-01-22T10:21:19.053Z,18.93
2019-01-22T10:22:26.673Z,23.83
2019-01-22T10:23:34.642Z,26.10
2019-01-22T10:24:42.475Z,22.80
2019-01-22T10:25:50.270Z,24.60
2019-01-22T10:26:58.202Z,16.40
2019-01-22T10:28:06.401Z,17.77
2019-01-22T10:29:14.430Z,18.53
2019-01-22T10:30:25.262Z,16.40
2019-01-22T10:31:33.147Z,24.13
2019-01-22T10:32:40.825Z,17.27
2019-01-22T10:33:48.549Z,18.57
2019-01-22T10:34:56.256Z,18.53
2019-01-22T10:36:04.211Z,18.00
2019-01-22T10:37:11.977Z,26.37
2019-01-22T10:38:19.753Z,17.17
2019-01-22T10:39:27.688Z,21.17
2019-01-22T10:40:35.431Z,24.57
2019-01-22T10:41:43.382Z,17.77
2019-01-22T10:42:51.371Z,23.30
2019-01-22T10:43:59.147Z,16.90
2019-01-22T10:45:11.660Z,20.00
2019-01-22T10:46:19.356Z,23.63
2019-01-22T10:47:27.544Z,14.87
2019-01-22T10:48:35.472Z,18.47
2019-01-22T10:49:43.275Z,20.10
2019-01-22T10:50:51.329Z,18.37
2019-01-22T10:51:59.017Z,19.40
2019-01-22T10:53:06.788Z,16.97
2019-01-22T10:54:14.473Z,21.10
2019-01-22T10:55:22.373Z,17.83
2019-01-22T10:56:30.048Z,21.00
2019-01-22T10:57:37.844Z,15.10
2019-01-22T10:58:45.614Z,22.50
2019-01-22T10:59:53.206Z,19.87
2019-01-22T11:01:01.317Z,23.67
2019-01-22T11:02:09.146Z,19.27
2019-01-22T11:03:17.221Z,26.47
2019-01-22T11:04:25.464Z,20.97
2019-01-22T11:05:36.664Z,15.13
2019-01-22T11:06:44.398Z,20.27
2019-01-22T11:07:52.360Z,18.47
2019-01-22T11:09:00.081Z,21.20
2019-01-22T11:10:09.196Z,23.80
2019-01-22T11:11:20.230Z,16.47
2019-01-22T11:12:28.022Z,21.67
2019-01-22T11:13:35.719Z,21.30
2019-01-22T11:14:43.536Z,19.23
2019-01-22T11:15:51.546Z,21.27
2019-01-22T11:16:59.486Z,15.73
2019-01-22T11:18:07.438Z,17.13
2019-01-22T11:19:15.388Z,27.93
2019-01-22T11:20:29.894Z,23.00
2019-01-22T11:21:38.119Z,21.47
2019-01-22T11:22:45.817Z,23.70
2019-01-22T11:23:53.599Z,20.57
2019-01-22T11:25:01.205Z,23.07
2019-01-22T11:26:08.958Z,23.00
2019-01-22T11:27:16.904Z,17.60
2019-01-22T11:28:24.772Z,23.47
2019-01-22T11:29:32.548Z,24.80
2019-01-22T11:30:40.471Z,25.93
2019-01-22T11:31:48.375Z,26.77
2019-01-22T11:32:59.238Z,25.70
2019-01-22T11:34:07.602Z,16.57
2019-01-22T11:35:18.652Z,21.50
2019-01-22T11:36:26.331Z,23.90
2019-01-22T11:37:33.783Z,18.37
2019-01-22T11:38:41.763Z,23.47
2019-01-22T11:39:49.430Z,24.43
2019-01-22T11:40:56.943Z,17.37
2019-01-22T11:42:04.972Z,20.77
2019-01-22T11:43:12.574Z,24.13
2019-01-22T11:44:20.504Z,32.30
2019-01-22T11:45:29.679Z,20.50
2019-01-22T11:46:37.596Z,18.50
2019-01-22T11:47:45.111Z,18.27
2019-01-22T11:48:53.043Z,32.23
2019-01-22T11:50:00.827Z,22.37
2019-01-22T11:51:08.336Z,22.13
2019-01-22T11:52:16.309Z,28.67
2019-01-22T11:53:25.577Z,22.73
2019-01-22T11:54:33.494Z,20.13
2019-01-22T11:55:41.343Z,27.50
2019-01-22T11:56:48.963Z,29.90
2019-01-22T11:57:56.900Z,27.13
2019-01-22T11:59:04.840Z,18.17
2019-01-22T12:00:26.702Z,19.47
2019-01-22T12:01:35.110Z,25.90
2019-01-22T12:02:42.439Z,23.20
2019-01-22T12:03:50.429Z,18.80
2019-01-22T12:04:58.345Z,23.77
2019-01-22T12:06:06.599Z,24.57
2019-01-22T12:07:14.223Z,20.03
2019-01-22T12:08:22.288Z,20.83
2019-01-22T12:09:30.252Z,30.03
2019-01-22T12:10:37.858Z,26.00
2019-01-22T12:11:45.716Z,21.70
2019-01-22T12:12:53.667Z,24.50
2019-01-22T12:14:01.721Z,27.93
2019-01-22T12:15:16.355Z,27.17
2019-01-22T12:16:23.983Z,19.43
2019-01-22T12:17:31.849Z,20.00
2019-01-22T12:18:39.772Z,25.30
2019-01-22T12:19:48.224Z,26.40
2019-01-22T12:20:56.222Z,30.10
2019-01-22T12:22:04.065Z,29.90
2019-01-22T12:23:11.695Z,26.97
2019-01-22T12:24:19.994Z,22.73
2019-01-22T12:25:27.748Z,27.53
2019-01-22T12:26:35.749Z,23.27
2019-01-22T12:27:43.738Z,22.13
2019-01-22T12:28:51.434Z,22.03
2019-01-22T12:29:59.488Z,17.53
2019-01-22T12:31:07.168Z,18.43
2019-01-22T12:32:15.652Z,17.70
2019-01-22T12:33:23.395Z,23.03
2019-01-22T12:34:32.108Z,27.87
2019-01-22T12:35:39.960Z,24.80
2019-01-22T12:36:48.137Z,16.47
2019-01-22T12:37:56.777Z,21.47
2019-01-22T12:39:06.908Z,17.03
2019-01-22T12:40:18.649Z,22.80
2019-01-22T12:41:26.822Z,19.37
2019-01-22T12:42:34.612Z,27.77
2019-01-22T12:43:42.661Z,25.43
2019-01-22T12:44:50.779Z,24.87
2019-01-22T12:45:58.698Z,13.23
2019-01-22T12:47:06.560Z,15.20
2019-01-22T12:48:14.357Z,24.33
2019-01-22T12:49:22.249Z,21.80
2019-01-22T12:50:30.188Z,17.90
2019-01-22T12:51:40.322Z,18.53
2019-01-22T12:52:48.513Z,19.60
2019-01-22T12:53:57.125Z,19.10
2019-01-22T12:55:06.356Z,19.03
2019-01-22T12:56:14.205Z,22.47
2019-01-22T12:57:22.300Z,19.67
2019-01-22T12:58:30.502Z,20.27
2019-01-22T12:59:38.274Z,21.87
2019-01-22T13:00:46.488Z,18.97
2019-01-22T13:01:54.809Z,25.60
2019-01-22T13:03:02.830Z,20.43
2019-01-22T13:04:10.835Z,16.10
2019-01-22T13:05:23.317Z,15.83
2019-01-22T13:06:31.058Z,19.37
2019-01-22T13:07:39.178Z,19.33
2019-01-22T13:08:47.219Z,31.30
2019-01-22T13:09:54.803Z,19.10
2019-01-22T13:11:03.188Z,18.40
2019-01-22T13:12:11.443Z,16.70
2019-01-22T13:13:20.521Z,20.17
2019-01-22T13:14:28.984Z,17.97
2019-01-22T13:15:36.954Z,14.70
2019-01-22T13:16:44.915Z,17.67
2019-01-22T13:17:52.685Z,16.20
2019-01-22T13:19:00.766Z,23.57
2019-01-22T13:20:18.417Z,18.40
2019-01-22T13:21:27.010Z,17.43
2019-01-22T13:22:36.855Z,25.40
2019-01-22T13:23:44.818Z,21.27
2019-01-22T13:24:52.704Z,24.43
2019-01-22T13:26:00.874Z,17.27
2019-01-22T13:27:08.664Z,16.90
2019-01-22T13:28:16.457Z,21.57
2019-01-22T13:29:25.639Z,24.03
2019-01-22T13:30:35.830Z,17.07
2019-01-22T13:31:45.345Z,18.27
2019-01-22T13:32:54.215Z,17.97
2019-01-22T13:34:02.404Z,12.83
2019-01-22T13:35:10.638Z,14.83
2019-01-22T13:36:18.317Z,19.37
2019-01-22T13:37:26.582Z,24.40
2019-01-22T13:38:34.715Z,13.53
2019-01-22T13:39:42.611Z,18.17
2019-01-22T13:40:52.266Z,16.30
2019-01-22T13:42:00.055Z,18.20
2019-01-22T13:43:08.596Z,14.97
2019-01-22T13:44:16.608Z,15.43
2019-01-22T13:45:37.221Z,19.97
2019-01-22T13:46:45.032Z,13.13
2019-01-22T13:47:54.522Z,18.80
2019-01-22T13:49:02.845Z,15.97
2019-01-22T13:50:18.201Z,13.27
2019-01-22T13:51:25.909Z,19.20
2019-01-22T13:52:33.974Z,15.73
2019-01-22T13:53:41.859Z,16.47
2019-01-22T13:54:49.987Z,15.20
2019-01-22T13:55:57.827Z,13.30
2019-01-22T13:57:05.846Z,17.53
2019-01-22T13:58:13.938Z,22.00
2019-01-22T13:59:21.737Z,16.17
2019-01-22T14:00:30.626Z,9.90
2019-01-22T14:01:38.689Z,15.30
2019-01-22T14:02:46.630Z,13.67
2019-01-22T14:03:54.554Z,18.80
2019-01-22T14:05:02.623Z,13.07
2019-01-22T14:06:10.583Z,22.27
2019-01-22T14:07:18.657Z,15.07
2019-01-22T14:08:26.532Z,24.20
2019-01-22T14:09:34.337Z,14.30
2019-01-22T14:10:42.108Z,14.30
2019-01-22T14:11:50.070Z,20.57
2019-01-22T14:12:58.181Z,15.40
2019-01-22T14:14:06.195Z,15.50
2019-01-22T14:15:29.958Z,13.77
2019-01-22T14:16:37.695Z,13.53
2019-01-22T14:17:45.473Z,23.50
2019-01-22T14:18:53.361Z,18.27
2019-01-22T14:20:01.694Z,23.97
2019-01-22T14:21:09.744Z,20.07
2019-01-22T14:22:18.091Z,14.90
2019-01-22T14:23:26.489Z,17.47
2019-01-22T14:24:34.242Z,17.73
2019-01-22T14:25:41.875Z,15.63
2019-01-22T14:26:50.182Z,17.10
2019-01-22T14:27:58.186Z,19.57
2019-01-22T14:29:06.720Z,17.43
2019-01-22T14:30:22.012Z,17.57
2019-01-22T14:31:32.087Z,21.93
2019-01-22T14:32:39.444Z,20.37
2019-01-22T14:33:47.562Z,18.23
2019-01-22T14:34:55.644Z,12.87
2019-01-22T14:36:03.602Z,16.70
2019-01-22T14:37:11.393Z,13.30
2019-01-22T14:38:19.329Z,19.90
2019-01-22T14:39:27.583Z,16.23
2019-01-22T14:40:35.495Z,18.87
2019-01-22T14:41:43.401Z,14.30
2019-01-22T14:42:51.759Z,13.53
2019-01-22T14:43:59.758Z,16.37
2019-01-22T14:45:17.391Z,17.77
2019-01-22T14:46:25.271Z,19.30
2019-01-22T14:47:35.095Z,17.60
2019-01-22T14:48:43.137Z,9.90
2019-01-22T14:49:51.914Z,15.53
2019-01-22T14:51:00.396Z,14.33
2019-01-22T14:52:09.589Z,20.37
2019-01-22T14:53:17.344Z,15.43
2019-01-22T14:54:25.647Z,14.23
2019-01-22T14:55:33.869Z,19.03
2019-01-22T14:56:42.656Z,19.27
2019-01-22T14:57:50.852Z,26.07
2019-01-22T14:58:59.043Z,14.20
2019-01-22T15:00:15.498Z,13.47
2019-01-22T15:01:23.800Z,15.70
2019-01-22T15:02:32.144Z,12.07
2019-01-22T15:03:41.454Z,17.00
2019-01-22T15:04:50.080Z,19.03
2019-01-22T15:05:57.766Z,19.43
2019-01-22T15:07:05.494Z,14.67
2019-01-22T15:08:13.991Z,15.27
2019-01-22T15:09:21.749Z,19.90
2019-01-22T15:10:29.442Z,12.00
2019-01-22T15:11:37.242Z,22.20
2019-01-22T15:12:46.834Z,12.53
2019-01-22T15:13:55.584Z,15.07
2019-01-22T15:15:03.766Z,25.73
2019-01-22T15:16:12.405Z,13.23
2019-01-22T15:17:21.044Z,13.97
2019-01-22T15:18:29.181Z,18.20
2019-01-22T15:19:37.001Z,12.07
2019-01-22T15:20:45.021Z,21.30
2019-01-22T15:21:54.124Z,13.93
2019-01-22T15:23:02.599Z,14.20
2019-01-22T15:24:10.814Z,14.37
2019-01-22T15:25:18.796Z,10.73
2019-01-22T15:26:26.813Z,14.47
2019-01-22T15:27:36.108Z,10.77
2019-01-22T15:28:45.563Z,12.53
2019-01-22T15:29:55.593Z,16.40
2019-01-22T15:31:03.909Z,13.67
2019-01-22T15:32:11.707Z,14.20
2019-01-22T15:33:20.044Z,18.83
2019-01-22T15:34:28.547Z,14.07
2019-01-22T15:35:36.709Z,12.07
2019-01-22T15:36:45.422Z,19.77
2019-01-22T15:37:54.224Z,16.00
2019-01-22T15:39:02.780Z,16.13
2019-01-22T15:40:16.548Z,14.87
2019-01-22T15:41:25.169Z,12.63
2019-01-22T15:42:34.025Z,15.88
2019-01-22T15:43:42.358Z,12.67
2019-01-22T15:44:50.803Z,14.57
2019-01-22T15:45:59.041Z,15.87
2019-01-22T15:47:07.199Z,13.17
2019-01-22T15:48:15.497Z,13.93
2019-01-22T15:49:24.698Z,11.93
2019-01-22T15:50:33.332Z,20.77
2019-01-22T15:51:42.007Z,13.07
2019-01-22T15:52:50.501Z,15.47
2019-01-22T15:53:58.648Z,11.60
2019-01-22T15:55:14.266Z,15.03
2019-01-22T15:56:22.733Z,12.47
2019-01-22T15:57:31.731Z,15.67
2019-01-22T15:58:41.329Z,14.73
2019-01-22T15:59:49.518Z,11.60
2019-01-22T16:00:57.976Z,16.20
2019-01-22T16:02:06.168Z,14.60
2019-01-22T16:03:14.780Z,13.20
2019-01-22T16:04:22.911Z,16.03
2019-01-22T16:05:30.978Z,17.83
2019-01-22T16:06:39.133Z,13.63
2019-01-22T16:07:47.399Z,15.00
2019-01-22T16:08:55.869Z,10.50
2019-01-22T16:10:04.675Z,13.33
2019-01-22T16:11:13.655Z,14.00
2019-01-22T16:12:22.316Z,12.90
2019-01-22T16:13:30.876Z,19.43
2019-01-22T16:14:39.539Z,16.97
2019-01-22T16:15:48.110Z,14.80
2019-01-22T16:16:56.656Z,13.80
2019-01-22T16:18:05.387Z,14.17
2019-01-22T16:19:14.125Z,12.90